sensor_id;sensor_type;location;lat;lon;timestamp;P1;durP1;ratioP1;P2;durP2;ratioP2
54815;SDS011;40715;55.752;37.884;2022-08-21T00:01:40;0.00;;;0.00;;
54815;SDS011;40715;55.752;37.884;2022-08-21T00:04:07;0.00;;;0.00;;
54815;SDS011;40715;55.752;37.884;2022-08-21T00:06:35;0.00;;;0.00;;
54815;SDS011;40715;55.752;37.884;2022-08-21T00:09:04;0.00;;;0.00;;
54815;SDS011;40715;55.752;37.884;2022-08-21T00:11:33;0.00;;;0.00;;
54815;SDS011;40715;55.752;37.884;2022-08-21T00:14:03;0.00;;;0.00;;
54815;SDS011;40715;55.752;37.884;2022-08-21T00:16:32;0.00;;;0.00;;
54815;SDS011;40715;55.752;37.884;2022-08-21T00:18:59;0.00;;;0.00;;
54815;SDS011;40715;55.752;37.884;2022-08-21T00:21:26;0.03;;;0.00;;
54815;SDS011;40715;55.752;37.884;2022-08-21T00:23:53;0.10;;;0.00;;
54815;SDS011;40715;55.752;37.884;2022-08-21T00:26:20;0.00;;;0.00;;
54815;SDS011;40715;55.752;37.884;2022-08-21T00:28:47;0.00;;;0.00;;
54815;SDS011;40715;55.752;37.884;2022-08-21T00:31:15;0.00;;;0.00;;
54815;SDS011;40715;55.752;37.884;2022-08-21T00:33:43;0.00;;;0.00;;
54815;SDS011;40715;55.752;37.884;2022-08-21T00:36:11;0.00;;;0.00;;
54815;SDS011;40715;55.752;37.884;2022-08-21T00:38:38;0.00;;;0.00;;
54815;SDS011;40715;55.752;37.884;2022-08-21T00:41:07;0.00;;;0.00;;
54815;SDS011;40715;55.752;37.884;2022-08-21T00:43:44;0.00;;;0.00;;
54815;SDS011;40715;55.752;37.884;2022-08-21T00:46:11;0.00;;;0.00;;
54815;SDS011;40715;55.752;37.884;2022-08-21T00:48:38;0.00;;;0.00;;
54815;SDS011;40715;55.752;37.884;2022-08-21T00:51:15;0.00;;;0.00;;
54815;SDS011;40715;55.752;37.884;2022-08-21T00:53:50;0.00;;;0.00;;
54815;SDS011;40715;55.752;37.884;2022-08-21T00:56:21;0.00;;;0.00;;
54815;SDS011;40715;55.752;37.884;2022-08-21T00:58:51;0.00;;;0.00;;
54815;SDS011;40715;55.752;37.884;2022-08-21T01:01:18;0.00;;;0.00;;
54815;SDS011;40715;55.752;37.884;2022-08-21T01:03:46;0.00;;;0.00;;
54815;SDS011;40715;55.752;37.884;2022-08-21T01:06:13;0.00;;;0.00;;
54815;SDS011;40715;55.752;37.884;2022-08-21T01:08:40;0.00;;;0.00;;
54815;SDS011;40715;55.752;37.884;2022-08-21T01:11:12;0.00;;;0.00;;
54815;SDS011;40715;55.752;37.884;2022-08-21T01:13:40;0.00;;;0.00;;
54815;SDS011;40715;55.752;37.884;2022-08-21T01:16:13;0.00;;;0.00;;
54815;SDS011;40715;55.752;37.884;2022-08-21T01:18:44;0.00;;;0.00;;
54815;SDS011;40715;55.752;37.884;2022-08-21T01:21:13;0.00;;;0.00;;
54815;SDS011;40715;55.752;37.884;2022-08-21T01:23:43;0.00;;;0.00;;
54815;SDS011;40715;55.752;37.884;2022-08-21T01:26:13;0.00;;;0.00;;
54815;SDS011;40715;55.752;37.884;2022-08-21T01:32:04;0.00;;;0.00;;
54815;SDS011;40715;55.752;37.884;2022-08-21T01:34:34;0.00;;;0.00;;
54815;SDS011;40715;55.752;37.884;2022-08-21T01:37:04;0.00;;;0.00;;
54815;SDS011;40715;55.752;37.884;2022-08-21T01:39:31;0.00;;;0.00;;
54815;SDS011;40715;55.752;37.884;2022-08-21T01:41:58;0.00;;;0.00;;
54815;SDS011;40715;55.752;37.884;2022-08-21T01:44:25;0.00;;;0.00;;
54815;SDS011;40715;55.752;37.884;2022-08-21T01:46:53;0.00;;;0.00;;
54815;SDS011;40715;55.752;37.884;2022-08-21T01:49:20;0.00;;;0.00;;
54815;SDS011;40715;55.752;37.884;2022-08-21T01:51:47;0.00;;;0.00;;
54815;SDS011;40715;55.752;37.884;2022-08-21T01:54:14;0.00;;;0.00;;
54815;SDS011;40715;55.752;37.884;2022-08-21T01:56:44;0.05;;;0.00;;
54815;SDS011;40715;55.752;37.884;2022-08-21T01:59:13;0.00;;;0.00;;
54815;SDS011;40715;55.752;37.884;2022-08-21T02:01:40;0.00;;;0.00;;
54815;SDS011;40715;55.752;37.884;2022-08-21T02:04:08;0.00;;;0.00;;
54815;SDS011;40715;55.752;37.884;2022-08-21T02:06:36;0.00;;;0.00;;
54815;SDS011;40715;55.752;37.884;2022-08-21T02:09:04;0.10;;;0.00;;
54815;SDS011;40715;55.752;37.884;2022-08-21T02:11:33;0.00;;;0.00;;
54815;SDS011;40715;55.752;37.884;2022-08-21T02:14:02;0.00;;;0.00;;
54815;SDS011;40715;55.752;37.884;2022-08-21T02:16:29;0.00;;;0.00;;
54815;SDS011;40715;55.752;37.884;2022-08-21T02:18:56;0.05;;;0.00;;
54815;SDS011;40715;55.752;37.884;2022-08-21T02:21:23;0.00;;;0.00;;
54815;SDS011;40715;55.752;37.884;2022-08-21T02:23:50;0.00;;;0.00;;
54815;SDS011;40715;55.752;37.884;2022-08-21T02:26:17;0.00;;;0.00;;
54815;SDS011;40715;55.752;37.884;2022-08-21T02:28:44;0.00;;;0.00;;
54815;SDS011;40715;55.752;37.884;2022-08-21T02:31:11;0.00;;;0.00;;
54815;SDS011;40715;55.752;37.884;2022-08-21T02:33:38;0.10;;;0.00;;
54815;SDS011;40715;55.752;37.884;2022-08-21T02:36:06;0.00;;;0.00;;
54815;SDS011;40715;55.752;37.884;2022-08-21T02:38:34;0.00;;;0.00;;
54815;SDS011;40715;55.752;37.884;2022-08-21T02:41:06;0.00;;;0.00;;
54815;SDS011;40715;55.752;37.884;2022-08-21T02:43:44;0.05;;;0.00;;
54815;SDS011;40715;55.752;37.884;2022-08-21T02:46:12;0.10;;;0.00;;
54815;SDS011;40715;55.752;37.884;2022-08-21T02:48:41;0.00;;;0.00;;
54815;SDS011;40715;55.752;37.884;2022-08-21T02:51:13;0.00;;;0.00;;
54815;SDS011;40715;55.752;37.884;2022-08-21T02:53:44;0.00;;;0.00;;
54815;SDS011;40715;55.752;37.884;2022-08-21T02:56:12;0.00;;;0.00;;
54815;SDS011;40715;55.752;37.884;2022-08-21T02:58:48;0.00;;;0.00;;
54815;SDS011;40715;55.752;37.884;2022-08-21T03:01:18;0.00;;;0.00;;
54815;SDS011;40715;55.752;37.884;2022-08-21T03:03:46;0.00;;;0.00;;
54815;SDS011;40715;55.752;37.884;2022-08-21T03:06:16;0.00;;;0.00;;
54815;SDS011;40715;55.752;37.884;2022-08-21T03:08:45;0.00;;;0.00;;
54815;SDS011;40715;55.752;37.884;2022-08-21T03:11:13;0.00;;;0.00;;
54815;SDS011;40715;55.752;37.884;2022-08-21T03:13:41;0.00;;;0.00;;
54815;SDS011;40715;55.752;37.884;2022-08-21T03:16:09;0.00;;;0.00;;
54815;SDS011;40715;55.752;37.884;2022-08-21T03:18:36;0.00;;;0.00;;
54815;SDS011;40715;55.752;37.884;2022-08-21T03:21:03;0.00;;;0.00;;
54815;SDS011;40715;55.752;37.884;2022-08-21T03:23:32;0.00;;;0.00;;
54815;SDS011;40715;55.752;37.884;2022-08-21T03:25:59;0.00;;;0.00;;
54815;SDS011;40715;55.752;37.884;2022-08-21T03:28:27;0.00;;;0.00;;
54815;SDS011;40715;55.752;37.884;2022-08-21T03:30:54;0.00;;;0.00;;
54815;SDS011;40715;55.752;37.884;2022-08-21T03:33:21;0.00;;;0.00;;
54815;SDS011;40715;55.752;37.884;2022-08-21T03:35:59;0.00;;;0.00;;
54815;SDS011;40715;55.752;37.884;2022-08-21T03:38:30;0.00;;;0.00;;
54815;SDS011;40715;55.752;37.884;2022-08-21T03:40:58;0.00;;;0.00;;
54815;SDS011;40715;55.752;37.884;2022-08-21T03:43:26;0.00;;;0.00;;
54815;SDS011;40715;55.752;37.884;2022-08-21T03:45:56;0.00;;;0.00;;
54815;SDS011;40715;55.752;37.884;2022-08-21T03:48:23;0.00;;;0.00;;
54815;SDS011;40715;55.752;37.884;2022-08-21T03:50:51;0.00;;;0.00;;
54815;SDS011;40715;55.752;37.884;2022-08-21T03:53:19;0.00;;;0.00;;
54815;SDS011;40715;55.752;37.884;2022-08-21T03:55:47;0.00;;;0.00;;
54815;SDS011;40715;55.752;37.884;2022-08-21T03:58:16;0.00;;;0.00;;
54815;SDS011;40715;55.752;37.884;2022-08-21T04:00:45;0.00;;;0.00;;
54815;SDS011;40715;55.752;37.884;2022-08-21T04:03:15;0.00;;;0.00;;
54815;SDS011;40715;55.752;37.884;2022-08-21T04:05:42;0.00;;;0.00;;
54815;SDS011;40715;55.752;37.884;2022-08-21T04:08:12;0.00;;;0.00;;
54815;SDS011;40715;55.752;37.884;2022-08-21T04:10:40;0.00;;;0.00;;
54815;SDS011;40715;55.752;37.884;2022-08-21T04:13:07;0.08;;;0.08;;
54815;SDS011;40715;55.752;37.884;2022-08-21T04:15:34;0.00;;;0.00;;
54815;SDS011;40715;55.752;37.884;2022-08-21T04:18:02;0.00;;;0.00;;
54815;SDS011;40715;55.752;37.884;2022-08-21T04:20:30;0.00;;;0.00;;
54815;SDS011;40715;55.752;37.884;2022-08-21T04:22:57;0.32;;;0.00;;
54815;SDS011;40715;55.752;37.884;2022-08-21T04:25:24;0.00;;;0.00;;
54815;SDS011;40715;55.752;37.884;2022-08-21T04:27:55;0.00;;;0.00;;
54815;SDS011;40715;55.752;37.884;2022-08-21T04:30:22;0.00;;;0.00;;
54815;SDS011;40715;55.752;37.884;2022-08-21T04:32:52;0.00;;;0.00;;
54815;SDS011;40715;55.752;37.884;2022-08-21T04:35:21;0.00;;;0.00;;
54815;SDS011;40715;55.752;37.884;2022-08-21T04:37:49;0.00;;;0.00;;
54815;SDS011;40715;55.752;37.884;2022-08-21T04:40:17;0.00;;;0.00;;
54815;SDS011;40715;55.752;37.884;2022-08-21T04:42:49;0.00;;;0.00;;
54815;SDS011;40715;55.752;37.884;2022-08-21T04:45:23;0.03;;;0.03;;
54815;SDS011;40715;55.752;37.884;2022-08-21T04:47:50;0.00;;;0.00;;
54815;SDS011;40715;55.752;37.884;2022-08-21T04:50:19;0.00;;;0.00;;
54815;SDS011;40715;55.752;37.884;2022-08-21T04:52:48;0.00;;;0.00;;
54815;SDS011;40715;55.752;37.884;2022-08-21T04:55:16;0.00;;;0.00;;
54815;SDS011;40715;55.752;37.884;2022-08-21T04:57:45;0.00;;;0.00;;
54815;SDS011;40715;55.752;37.884;2022-08-21T05:00:14;0.10;;;0.10;;
54815;SDS011;40715;55.752;37.884;2022-08-21T05:02:45;0.10;;;0.10;;
54815;SDS011;40715;55.752;37.884;2022-08-21T05:05:14;0.10;;;0.10;;
54815;SDS011;40715;55.752;37.884;2022-08-21T05:07:42;0.10;;;0.10;;
54815;SDS011;40715;55.752;37.884;2022-08-21T05:10:11;0.10;;;0.10;;
54815;SDS011;40715;55.752;37.884;2022-08-21T05:12:43;0.10;;;0.10;;
54815;SDS011;40715;55.752;37.884;2022-08-21T05:15:11;0.20;;;0.20;;
54815;SDS011;40715;55.752;37.884;2022-08-21T05:17:39;0.20;;;0.20;;
54815;SDS011;40715;55.752;37.884;2022-08-21T05:20:08;0.20;;;0.20;;
54815;SDS011;40715;55.752;37.884;2022-08-21T05:22:36;0.22;;;0.22;;
54815;SDS011;40715;55.752;37.884;2022-08-21T05:25:04;0.30;;;0.30;;
54815;SDS011;40715;55.752;37.884;2022-08-21T05:27:37;0.30;;;0.30;;
54815;SDS011;40715;55.752;37.884;2022-08-21T05:30:08;0.50;;;0.50;;
54815;SDS011;40715;55.752;37.884;2022-08-21T05:32:36;0.40;;;0.40;;
54815;SDS011;40715;55.752;37.884;2022-08-21T05:35:04;0.45;;;0.45;;
54815;SDS011;40715;55.752;37.884;2022-08-21T05:37:32;0.50;;;0.50;;
54815;SDS011;40715;55.752;37.884;2022-08-21T05:39:59;0.50;;;0.50;;
54815;SDS011;40715;55.752;37.884;2022-08-21T05:42:30;0.50;;;0.50;;
54815;SDS011;40715;55.752;37.884;2022-08-21T05:44:56;0.60;;;0.60;;
54815;SDS011;40715;55.752;37.884;2022-08-21T05:47:23;0.60;;;0.60;;
54815;SDS011;40715;55.752;37.884;2022-08-21T05:49:51;0.75;;;0.75;;
54815;SDS011;40715;55.752;37.884;2022-08-21T05:52:18;0.90;;;0.90;;
54815;SDS011;40715;55.752;37.884;2022-08-21T05:54:47;0.70;;;0.70;;
54815;SDS011;40715;55.752;37.884;2022-08-21T05:57:14;0.70;;;0.70;;
54815;SDS011;40715;55.752;37.884;2022-08-21T05:59:41;0.80;;;0.80;;
54815;SDS011;40715;55.752;37.884;2022-08-21T06:02:09;0.80;;;0.80;;
54815;SDS011;40715;55.752;37.884;2022-08-21T06:04:39;1.00;;;1.00;;
54815;SDS011;40715;55.752;37.884;2022-08-21T06:07:06;1.50;;;1.50;;
54815;SDS011;40715;55.752;37.884;2022-08-21T06:09:34;2.20;;;2.10;;
54815;SDS011;40715;55.752;37.884;2022-08-21T06:12:03;1.52;;;1.52;;
54815;SDS011;40715;55.752;37.884;2022-08-21T06:14:35;1.40;;;1.40;;
54815;SDS011;40715;55.752;37.884;2022-08-21T06:17:06;1.70;;;1.70;;
54815;SDS011;40715;55.752;37.884;2022-08-21T06:19:35;1.40;;;1.40;;
54815;SDS011;40715;55.752;37.884;2022-08-21T06:22:03;1.60;;;1.60;;
54815;SDS011;40715;55.752;37.884;2022-08-21T06:24:30;1.30;;;1.30;;
54815;SDS011;40715;55.752;37.884;2022-08-21T06:26:57;1.30;;;1.30;;
54815;SDS011;40715;55.752;37.884;2022-08-21T06:29:29;1.40;;;1.40;;
54815;SDS011;40715;55.752;37.884;2022-08-21T06:31:57;1.27;;;1.27;;
54815;SDS011;40715;55.752;37.884;2022-08-21T06:34:23;1.50;;;1.50;;
54815;SDS011;40715;55.752;37.884;2022-08-21T06:36:50;1.42;;;1.42;;
54815;SDS011;40715;55.752;37.884;2022-08-21T06:39:17;1.50;;;1.50;;
54815;SDS011;40715;55.752;37.884;2022-08-21T06:41:50;1.80;;;1.80;;
54815;SDS011;40715;55.752;37.884;2022-08-21T06:44:18;2.42;;;2.33;;
54815;SDS011;40715;55.752;37.884;2022-08-21T06:46:45;2.63;;;2.53;;
54815;SDS011;40715;55.752;37.884;2022-08-21T06:49:12;2.60;;;2.50;;
54815;SDS011;40715;55.752;37.884;2022-08-21T06:51:45;2.50;;;2.40;;
54815;SDS011;40715;55.752;37.884;2022-08-21T06:54:12;2.70;;;2.60;;
54815;SDS011;40715;55.752;37.884;2022-08-21T06:56:39;2.70;;;2.60;;
54815;SDS011;40715;55.752;37.884;2022-08-21T06:59:05;3.35;;;3.25;;
54815;SDS011;40715;55.752;37.884;2022-08-21T07:01:32;2.83;;;2.72;;
54815;SDS011;40715;55.752;37.884;2022-08-21T07:03:59;3.42;;;3.33;;
54815;SDS011;40715;55.752;37.884;2022-08-21T07:06:27;3.60;;;3.50;;
54815;SDS011;40715;55.752;37.884;2022-08-21T07:08:53;3.08;;;2.97;;
54815;SDS011;40715;55.752;37.884;2022-08-21T07:11:23;3.10;;;3.00;;
54815;SDS011;40715;55.752;37.884;2022-08-21T07:13:51;2.88;;;2.78;;
54815;SDS011;40715;55.752;37.884;2022-08-21T07:16:20;3.08;;;2.97;;
54815;SDS011;40715;55.752;37.884;2022-08-21T07:18:47;3.22;;;3.13;;
54815;SDS011;40715;55.752;37.884;2022-08-21T07:21:15;7.13;;;6.82;;
54815;SDS011;40715;55.752;37.884;2022-08-21T07:23:43;4.35;;;4.15;;
54815;SDS011;40715;55.752;37.884;2022-08-21T07:26:13;4.35;;;4.15;;
54815;SDS011;40715;55.752;37.884;2022-08-21T07:28:43;3.80;;;3.70;;
54815;SDS011;40715;55.752;37.884;2022-08-21T07:31:10;3.60;;;3.50;;
54815;SDS011;40715;55.752;37.884;2022-08-21T07:33:41;3.88;;;3.78;;
54815;SDS011;40715;55.752;37.884;2022-08-21T07:36:08;3.50;;;3.40;;
54815;SDS011;40715;55.752;37.884;2022-08-21T07:38:36;3.35;;;3.25;;
54815;SDS011;40715;55.752;37.884;2022-08-21T07:41:05;3.40;;;3.30;;
54815;SDS011;40715;55.752;37.884;2022-08-21T07:43:39;3.28;;;3.17;;
54815;SDS011;40715;55.752;37.884;2022-08-21T07:46:10;3.05;;;2.95;;
54815;SDS011;40715;55.752;37.884;2022-08-21T07:48:37;3.30;;;3.20;;
54815;SDS011;40715;55.752;37.884;2022-08-21T07:51:08;3.10;;;3.00;;
54815;SDS011;40715;55.752;37.884;2022-08-21T07:53:37;2.72;;;2.63;;
54815;SDS011;40715;55.752;37.884;2022-08-21T07:56:05;2.80;;;2.70;;
54815;SDS011;40715;55.752;37.884;2022-08-21T07:58:34;2.70;;;2.60;;
54815;SDS011;40715;55.752;37.884;2022-08-21T08:01:01;2.47;;;2.38;;
54815;SDS011;40715;55.752;37.884;2022-08-21T08:03:28;2.40;;;2.30;;
54815;SDS011;40715;55.752;37.884;2022-08-21T08:05:56;2.22;;;2.13;;
54815;SDS011;40715;55.752;37.884;2022-08-21T08:08:24;1.98;;;1.98;;
54815;SDS011;40715;55.752;37.884;2022-08-21T08:10:51;2.30;;;2.20;;
54815;SDS011;40715;55.752;37.884;2022-08-21T08:13:20;1.98;;;1.98;;
54815;SDS011;40715;55.752;37.884;2022-08-21T08:15:47;2.30;;;2.20;;
54815;SDS011;40715;55.752;37.884;2022-08-21T08:18:14;2.40;;;2.30;;
54815;SDS011;40715;55.752;37.884;2022-08-21T08:20:42;1.75;;;1.75;;
54815;SDS011;40715;55.752;37.884;2022-08-21T08:23:10;1.80;;;1.80;;
54815;SDS011;40715;55.752;37.884;2022-08-21T08:25:38;2.85;;;2.75;;
54815;SDS011;40715;55.752;37.884;2022-08-21T08:28:05;1.95;;;1.95;;
54815;SDS011;40715;55.752;37.884;2022-08-21T08:30:42;2.40;;;2.30;;
54815;SDS011;40715;55.752;37.884;2022-08-21T08:33:09;2.00;;;2.00;;
54815;SDS011;40715;55.752;37.884;2022-08-21T08:35:37;2.38;;;2.28;;
54815;SDS011;40715;55.752;37.884;2022-08-21T08:38:06;2.40;;;2.30;;
54815;SDS011;40715;55.752;37.884;2022-08-21T08:40:41;2.00;;;2.00;;
54815;SDS011;40715;55.752;37.884;2022-08-21T08:43:12;1.60;;;1.60;;
54815;SDS011;40715;55.752;37.884;2022-08-21T08:45:42;1.05;;;1.05;;
54815;SDS011;40715;55.752;37.884;2022-08-21T08:48:14;1.20;;;1.20;;
54815;SDS011;40715;55.752;37.884;2022-08-21T08:50:57;1.10;;;1.10;;
54815;SDS011;40715;55.752;37.884;2022-08-21T08:53:31;1.10;;;1.10;;
54815;SDS011;40715;55.752;37.884;2022-08-21T08:56:01;1.30;;;1.30;;
54815;SDS011;40715;55.752;37.884;2022-08-21T08:58:37;1.33;;;1.33;;
54815;SDS011;40715;55.752;37.884;2022-08-21T09:01:11;1.60;;;1.60;;
54815;SDS011;40715;55.752;37.884;2022-08-21T09:03:43;1.48;;;1.48;;
54815;SDS011;40715;55.752;37.884;2022-08-21T09:06:19;1.60;;;1.60;;
54815;SDS011;40715;55.752;37.884;2022-08-21T09:11:57;1.40;;;1.40;;
54815;SDS011;40715;55.752;37.884;2022-08-21T09:14:50;1.30;;;1.30;;
54815;SDS011;40715;55.752;37.884;2022-08-21T09:23:02;0.95;;;0.95;;
54815;SDS011;40715;55.752;37.884;2022-08-21T09:26:12;0.80;;;0.80;;
54815;SDS011;40715;55.752;37.884;2022-08-21T09:28:42;0.50;;;0.50;;
54815;SDS011;40715;55.752;37.884;2022-08-21T09:31:16;0.47;;;0.47;;
54815;SDS011;40715;55.752;37.884;2022-08-21T09:34:01;0.40;;;0.40;;
54815;SDS011;40715;55.752;37.884;2022-08-21T09:36:37;0.30;;;0.30;;
54815;SDS011;40715;55.752;37.884;2022-08-21T09:39:07;0.20;;;0.20;;
54815;SDS011;40715;55.752;37.884;2022-08-21T09:41:36;0.20;;;0.20;;
54815;SDS011;40715;55.752;37.884;2022-08-21T09:44:04;0.20;;;0.20;;
54815;SDS011;40715;55.752;37.884;2022-08-21T09:46:33;0.20;;;0.20;;
54815;SDS011;40715;55.752;37.884;2022-08-21T09:49:01;0.20;;;0.20;;
54815;SDS011;40715;55.752;37.884;2022-08-21T09:51:30;0.20;;;0.20;;
54815;SDS011;40715;55.752;37.884;2022-08-21T09:56:34;0.20;;;0.20;;
54815;SDS011;40715;55.752;37.884;2022-08-21T09:59:30;0.10;;;0.10;;
54815;SDS011;40715;55.752;37.884;2022-08-21T10:02:07;0.10;;;0.10;;
54815;SDS011;40715;55.752;37.884;2022-08-21T10:05:07;0.10;;;0.10;;
54815;SDS011;40715;55.752;37.884;2022-08-21T10:07:53;0.10;;;0.10;;
54815;SDS011;40715;55.752;37.884;2022-08-21T10:10:25;0.00;;;0.00;;
54815;SDS011;40715;55.752;37.884;2022-08-21T10:13:08;0.10;;;0.10;;
54815;SDS011;40715;55.752;37.884;2022-08-21T10:21:02;0.10;;;0.10;;
54815;SDS011;40715;55.752;37.884;2022-08-21T10:29:13;0.00;;;0.00;;
54815;SDS011;40715;55.752;37.884;2022-08-21T10:31:54;0.00;;;0.00;;
54815;SDS011;40715;55.752;37.884;2022-08-21T10:37:26;0.10;;;0.10;;
54815;SDS011;40715;55.752;37.884;2022-08-21T10:42:56;0.10;;;0.10;;
54815;SDS011;40715;55.752;37.884;2022-08-21T10:45:52;0.10;;;0.10;;
54815;SDS011;40715;55.752;37.884;2022-08-21T10:48:29;0.08;;;0.08;;
54815;SDS011;40715;55.752;37.884;2022-08-21T10:51:51;0.00;;;0.00;;
54815;SDS011;40715;55.752;37.884;2022-08-21T10:54:24;0.00;;;0.00;;
54815;SDS011;40715;55.752;37.884;2022-08-21T10:58:04;0.08;;;0.08;;
54815;SDS011;40715;55.752;37.884;2022-08-21T11:00:15;0.10;;;0.10;;
54815;SDS011;40715;55.752;37.884;2022-08-21T11:05:53;0.00;;;0.00;;
54815;SDS011;40715;55.752;37.884;2022-08-21T11:08:35;0.00;;;0.00;;
54815;SDS011;40715;55.752;37.884;2022-08-21T11:11:27;0.08;;;0.08;;
54815;SDS011;40715;55.752;37.884;2022-08-21T11:14:08;0.10;;;0.10;;
54815;SDS011;40715;55.752;37.884;2022-08-21T11:17:02;0.13;;;0.10;;
54815;SDS011;40715;55.752;37.884;2022-08-21T11:19:52;0.10;;;0.10;;
54815;SDS011;40715;55.752;37.884;2022-08-21T11:27:54;0.00;;;0.00;;
54815;SDS011;40715;55.752;37.884;2022-08-21T11:30:37;0.10;;;0.10;;
54815;SDS011;40715;55.752;37.884;2022-08-21T11:36:17;0.00;;;0.00;;
54815;SDS011;40715;55.752;37.884;2022-08-21T11:46:48;0.00;;;0.00;;
54815;SDS011;40715;55.752;37.884;2022-08-21T11:54:57;0.00;;;0.00;;
54815;SDS011;40715;55.752;37.884;2022-08-21T11:57:32;0.00;;;0.00;;
54815;SDS011;40715;55.752;37.884;2022-08-21T12:00:16;0.00;;;0.00;;
54815;SDS011;40715;55.752;37.884;2022-08-21T12:02:55;0.00;;;0.00;;
54815;SDS011;40715;55.752;37.884;2022-08-21T12:05:33;0.00;;;0.00;;
54815;SDS011;40715;55.752;37.884;2022-08-21T12:10:36;0.00;;;0.00;;
54815;SDS011;40715;55.752;37.884;2022-08-21T12:13:22;0.00;;;0.00;;
54815;SDS011;40715;55.752;37.884;2022-08-21T12:18:41;0.00;;;0.00;;
54815;SDS011;40715;55.752;37.884;2022-08-21T12:21:27;0.00;;;0.00;;
54815;SDS011;40715;55.752;37.884;2022-08-21T12:26:53;0.00;;;0.00;;
54815;SDS011;40715;55.752;37.884;2022-08-21T12:29:22;0.00;;;0.00;;
54815;SDS011;40715;55.752;37.884;2022-08-21T12:32:00;0.00;;;0.00;;
54815;SDS011;40715;55.752;37.884;2022-08-21T12:34:49;0.10;;;0.00;;
54815;SDS011;40715;55.752;37.884;2022-08-21T12:37:30;0.08;;;0.08;;
54815;SDS011;40715;55.752;37.884;2022-08-21T12:40:03;0.00;;;0.00;;
54815;SDS011;40715;55.752;37.884;2022-08-21T12:42:38;0.00;;;0.00;;
54815;SDS011;40715;55.752;37.884;2022-08-21T12:45:51;0.00;;;0.00;;
54815;SDS011;40715;55.752;37.884;2022-08-21T12:51:17;0.05;;;0.05;;
54815;SDS011;40715;55.752;37.884;2022-08-21T12:53:56;0.00;;;0.00;;
54815;SDS011;40715;55.752;37.884;2022-08-21T12:56:26;0.00;;;0.00;;
54815;SDS011;40715;55.752;37.884;2022-08-21T12:59:02;0.00;;;0.00;;
54815;SDS011;40715;55.752;37.884;2022-08-21T13:01:35;0.00;;;0.00;;
54815;SDS011;40715;55.752;37.884;2022-08-21T13:04:11;0.40;;;0.00;;
54815;SDS011;40715;55.752;37.884;2022-08-21T13:06:45;0.00;;;0.00;;
54815;SDS011;40715;55.752;37.884;2022-08-21T13:09:16;0.00;;;0.00;;
54815;SDS011;40715;55.752;37.884;2022-08-21T13:11:47;0.00;;;0.00;;
54815;SDS011;40715;55.752;37.884;2022-08-21T13:14:35;0.00;;;0.00;;
54815;SDS011;40715;55.752;37.884;2022-08-21T13:17:10;0.00;;;0.00;;
54815;SDS011;40715;55.752;37.884;2022-08-21T13:19:39;0.00;;;0.00;;
54815;SDS011;40715;55.752;37.884;2022-08-21T13:22:12;0.00;;;0.00;;
54815;SDS011;40715;55.752;37.884;2022-08-21T13:24:58;0.00;;;0.00;;
54815;SDS011;40715;55.752;37.884;2022-08-21T13:27:30;0.00;;;0.00;;
54815;SDS011;40715;55.752;37.884;2022-08-21T13:32:38;0.00;;;0.00;;
54815;SDS011;40715;55.752;37.884;2022-08-21T13:35:10;0.00;;;0.00;;
54815;SDS011;40715;55.752;37.884;2022-08-21T13:37:41;0.00;;;0.00;;
54815;SDS011;40715;55.752;37.884;2022-08-21T13:40:10;0.00;;;0.00;;
54815;SDS011;40715;55.752;37.884;2022-08-21T13:42:43;0.00;;;0.00;;
54815;SDS011;40715;55.752;37.884;2022-08-21T13:45:14;0.00;;;0.00;;
54815;SDS011;40715;55.752;37.884;2022-08-21T13:47:45;0.00;;;0.00;;
54815;SDS011;40715;55.752;37.884;2022-08-21T13:50:15;0.00;;;0.00;;
54815;SDS011;40715;55.752;37.884;2022-08-21T13:53:04;0.00;;;0.00;;
54815;SDS011;40715;55.752;37.884;2022-08-21T13:55:44;0.00;;;0.00;;
54815;SDS011;40715;55.752;37.884;2022-08-21T13:58:11;0.00;;;0.00;;
54815;SDS011;40715;55.752;37.884;2022-08-21T14:00:46;0.00;;;0.00;;
54815;SDS011;40715;55.752;37.884;2022-08-21T14:05:59;0.00;;;0.00;;
54815;SDS011;40715;55.752;37.884;2022-08-21T14:08:29;0.00;;;0.00;;
54815;SDS011;40715;55.752;37.884;2022-08-21T14:10:59;0.00;;;0.00;;
54815;SDS011;40715;55.752;37.884;2022-08-21T14:21:33;0.00;;;0.00;;
54815;SDS011;40715;55.752;37.884;2022-08-21T14:24:09;0.00;;;0.00;;
54815;SDS011;40715;55.752;37.884;2022-08-21T14:26:46;0.00;;;0.00;;
54815;SDS011;40715;55.752;37.884;2022-08-21T14:29:16;0.00;;;0.00;;
54815;SDS011;40715;55.752;37.884;2022-08-21T14:31:50;0.00;;;0.00;;
54815;SDS011;40715;55.752;37.884;2022-08-21T14:34:24;0.00;;;0.00;;
54815;SDS011;40715;55.752;37.884;2022-08-21T14:36:56;0.00;;;0.00;;
54815;SDS011;40715;55.752;37.884;2022-08-21T14:39:23;0.00;;;0.00;;
54815;SDS011;40715;55.752;37.884;2022-08-21T14:41:49;0.00;;;0.00;;
54815;SDS011;40715;55.752;37.884;2022-08-21T14:44:18;0.00;;;0.00;;
54815;SDS011;40715;55.752;37.884;2022-08-21T14:46:45;0.00;;;0.00;;
54815;SDS011;40715;55.752;37.884;2022-08-21T14:49:22;0.00;;;0.00;;
54815;SDS011;40715;55.752;37.884;2022-08-21T14:51:53;0.00;;;0.00;;
54815;SDS011;40715;55.752;37.884;2022-08-21T14:54:27;0.00;;;0.00;;
54815;SDS011;40715;55.752;37.884;2022-08-21T14:57:01;0.00;;;0.00;;
54815;SDS011;40715;55.752;37.884;2022-08-21T14:59:33;0.00;;;0.00;;
54815;SDS011;40715;55.752;37.884;2022-08-21T15:02:01;0.00;;;0.00;;
54815;SDS011;40715;55.752;37.884;2022-08-21T15:04:30;0.00;;;0.00;;
54815;SDS011;40715;55.752;37.884;2022-08-21T15:06:58;0.00;;;0.00;;
54815;SDS011;40715;55.752;37.884;2022-08-21T15:09:25;0.00;;;0.00;;
54815;SDS011;40715;55.752;37.884;2022-08-21T15:11:53;0.00;;;0.00;;
54815;SDS011;40715;55.752;37.884;2022-08-21T15:14:25;0.00;;;0.00;;
54815;SDS011;40715;55.752;37.884;2022-08-21T15:16:53;0.00;;;0.00;;
54815;SDS011;40715;55.752;37.884;2022-08-21T15:19:21;0.00;;;0.00;;
54815;SDS011;40715;55.752;37.884;2022-08-21T15:21:48;0.00;;;0.00;;
54815;SDS011;40715;55.752;37.884;2022-08-21T15:24:15;0.00;;;0.00;;
54815;SDS011;40715;55.752;37.884;2022-08-21T15:26:42;0.00;;;0.00;;
54815;SDS011;40715;55.752;37.884;2022-08-21T15:29:10;0.00;;;0.00;;
54815;SDS011;40715;55.752;37.884;2022-08-21T15:31:40;0.00;;;0.00;;
54815;SDS011;40715;55.752;37.884;2022-08-21T15:34:17;0.00;;;0.00;;
54815;SDS011;40715;55.752;37.884;2022-08-21T15:36:44;0.00;;;0.00;;
54815;SDS011;40715;55.752;37.884;2022-08-21T15:39:11;0.00;;;0.00;;
54815;SDS011;40715;55.752;37.884;2022-08-21T15:41:38;0.00;;;0.00;;
54815;SDS011;40715;55.752;37.884;2022-08-21T15:44:06;0.00;;;0.00;;
54815;SDS011;40715;55.752;37.884;2022-08-21T15:46:36;0.00;;;0.00;;
54815;SDS011;40715;55.752;37.884;2022-08-21T15:49:03;0.00;;;0.00;;
54815;SDS011;40715;55.752;37.884;2022-08-21T15:51:30;0.00;;;0.00;;
54815;SDS011;40715;55.752;37.884;2022-08-21T15:53:58;0.00;;;0.00;;
54815;SDS011;40715;55.752;37.884;2022-08-21T15:56:27;0.00;;;0.00;;
54815;SDS011;40715;55.752;37.884;2022-08-21T15:59:08;0.00;;;0.00;;
54815;SDS011;40715;55.752;37.884;2022-08-21T16:01:41;0.00;;;0.00;;
54815;SDS011;40715;55.752;37.884;2022-08-21T16:04:34;0.00;;;0.00;;
54815;SDS011;40715;55.752;37.884;2022-08-21T16:07:01;0.00;;;0.00;;
54815;SDS011;40715;55.752;37.884;2022-08-21T16:09:34;0.00;;;0.00;;
54815;SDS011;40715;55.752;37.884;2022-08-21T16:12:03;0.00;;;0.00;;
54815;SDS011;40715;55.752;37.884;2022-08-21T16:14:33;0.00;;;0.00;;
54815;SDS011;40715;55.752;37.884;2022-08-21T16:17:06;0.00;;;0.00;;
54815;SDS011;40715;55.752;37.884;2022-08-21T16:19:39;0.00;;;0.00;;